sensor_id;sensor_type;location;lat;lon;timestamp;P1;durP1;ratioP1;P2;durP2;ratioP2
43756;SDS011;45574;41.864;12.462;2022-09-29T00:02:27;24.42;;;4.28;;
43756;SDS011;45574;41.864;12.462;2022-09-29T00:05:13;25.85;;;4.20;;
43756;SDS011;45574;41.864;12.462;2022-09-29T00:07:59;31.33;;;5.13;;
43756;SDS011;45574;41.864;12.462;2022-09-29T00:10:46;29.50;;;4.75;;
43756;SDS011;45574;41.864;12.462;2022-09-29T00:13:33;32.95;;;4.70;;
43756;SDS011;45574;41.864;12.462;2022-09-29T00:16:19;29.38;;;4.97;;
43756;SDS011;45574;41.864;12.462;2022-09-29T00:19:06;31.05;;;4.80;;
43756;SDS011;45574;41.864;12.462;2022-09-29T00:21:53;25.98;;;4.82;;
43756;SDS011;45574;41.864;12.462;2022-09-29T00:24:39;29.60;;;4.72;;
43756;SDS011;45574;41.864;12.462;2022-09-29T00:27:26;31.23;;;4.30;;
43756;SDS011;45574;41.864;12.462;2022-09-29T00:30:12;32.33;;;4.75;;
43756;SDS011;45574;41.864;12.462;2022-09-29T00:32:59;28.00;;;4.53;;
43756;SDS011;45574;41.864;12.462;2022-09-29T00:35:54;39.40;;;5.13;;
43756;SDS011;45574;41.864;12.462;2022-09-29T00:38:44;30.08;;;5.30;;
43756;SDS011;45574;41.864;12.462;2022-09-29T00:41:33;31.80;;;4.63;;
43756;SDS011;45574;41.864;12.462;2022-09-29T00:47:08;39.95;;;5.47;;
43756;SDS011;45574;41.864;12.462;2022-09-29T00:50:11;29.55;;;5.20;;
43756;SDS011;45574;41.864;12.462;2022-09-29T00:53:03;32.60;;;4.93;;
43756;SDS011;45574;41.864;12.462;2022-09-29T00:56:07;32.75;;;4.50;;
43756;SDS011;45574;41.864;12.462;2022-09-29T00:59:00;26.38;;;4.43;;
43756;SDS011;45574;41.864;12.462;2022-09-29T01:01:50;32.33;;;5.00;;
43756;SDS011;45574;41.864;12.462;2022-09-29T01:04:37;36.60;;;5.07;;
43756;SDS011;45574;41.864;12.462;2022-09-29T01:07:24;30.05;;;4.68;;
43756;SDS011;45574;41.864;12.462;2022-09-29T01:10:12;32.80;;;4.85;;
43756;SDS011;45574;41.864;12.462;2022-09-29T01:13:02;26.27;;;4.22;;
43756;SDS011;45574;41.864;12.462;2022-09-29T01:15:48;28.65;;;4.68;;
43756;SDS011;45574;41.864;12.462;2022-09-29T01:18:35;24.92;;;4.45;;
43756;SDS011;45574;41.864;12.462;2022-09-29T01:21:25;28.08;;;4.95;;
43756;SDS011;45574;41.864;12.462;2022-09-29T01:27:50;28.60;;;5.03;;
43756;SDS011;45574;41.864;12.462;2022-09-29T01:34:29;28.17;;;4.45;;
43756;SDS011;45574;41.864;12.462;2022-09-29T01:40:25;29.20;;;4.40;;
43756;SDS011;45574;41.864;12.462;2022-09-29T01:43:39;22.45;;;3.83;;
43756;SDS011;45574;41.864;12.462;2022-09-29T01:46:51;29.17;;;4.07;;
43756;SDS011;45574;41.864;12.462;2022-09-29T01:49:43;28.17;;;5.03;;
43756;SDS011;45574;41.864;12.462;2022-09-29T01:52:33;32.20;;;4.47;;
43756;SDS011;45574;41.864;12.462;2022-09-29T01:55:28;24.80;;;3.92;;
43756;SDS011;45574;41.864;12.462;2022-09-29T01:58:25;27.70;;;4.35;;
43756;SDS011;45574;41.864;12.462;2022-09-29T02:01:17;26.00;;;4.43;;
43756;SDS011;45574;41.864;12.462;2022-09-29T02:04:13;22.90;;;4.60;;
43756;SDS011;45574;41.864;12.462;2022-09-29T02:07:06;27.83;;;4.75;;
43756;SDS011;45574;41.864;12.462;2022-09-29T02:09:58;26.95;;;4.75;;
43756;SDS011;45574;41.864;12.462;2022-09-29T02:15:36;24.55;;;4.47;;
43756;SDS011;45574;41.864;12.462;2022-09-29T02:18:31;27.48;;;4.43;;
43756;SDS011;45574;41.864;12.462;2022-09-29T02:21:25;22.65;;;4.53;;
43756;SDS011;45574;41.864;12.462;2022-09-29T02:24:13;24.73;;;4.30;;
43756;SDS011;45574;41.864;12.462;2022-09-29T02:27:01;25.65;;;4.35;;
43756;SDS011;45574;41.864;12.462;2022-09-29T02:29:48;35.45;;;4.95;;
43756;SDS011;45574;41.864;12.462;2022-09-29T02:32:36;24.25;;;4.30;;
43756;SDS011;45574;41.864;12.462;2022-09-29T02:35:22;26.73;;;4.35;;
43756;SDS011;45574;41.864;12.462;2022-09-29T02:38:16;22.08;;;3.95;;
43756;SDS011;45574;41.864;12.462;2022-09-29T02:51:15;24.35;;;4.60;;
43756;SDS011;45574;41.864;12.462;2022-09-29T03:00:06;26.08;;;4.45;;
43756;SDS011;45574;41.864;12.462;2022-09-29T03:02:57;24.92;;;3.80;;
43756;SDS011;45574;41.864;12.462;2022-09-29T03:05:44;29.50;;;4.13;;
43756;SDS011;45574;41.864;12.462;2022-09-29T03:08:30;27.45;;;3.30;;
43756;SDS011;45574;41.864;12.462;2022-09-29T03:11:18;22.95;;;4.55;;
43756;SDS011;45574;41.864;12.462;2022-09-29T03:14:04;22.77;;;4.18;;
43756;SDS011;45574;41.864;12.462;2022-09-29T03:16:54;25.45;;;3.88;;
43756;SDS011;45574;41.864;12.462;2022-09-29T03:19:40;24.25;;;3.67;;
43756;SDS011;45574;41.864;12.462;2022-09-29T03:22:29;23.65;;;3.60;;
43756;SDS011;45574;41.864;12.462;2022-09-29T03:25:15;24.17;;;3.95;;
43756;SDS011;45574;41.864;12.462;2022-09-29T03:28:02;22.27;;;3.65;;
43756;SDS011;45574;41.864;12.462;2022-09-29T03:30:48;18.08;;;2.95;;
43756;SDS011;45574;41.864;12.462;2022-09-29T03:33:35;25.45;;;4.18;;
43756;SDS011;45574;41.864;12.462;2022-09-29T03:36:23;20.67;;;3.20;;
43756;SDS011;45574;41.864;12.462;2022-09-29T03:39:10;27.98;;;4.43;;
43756;SDS011;45574;41.864;12.462;2022-09-29T03:41:56;27.73;;;3.88;;
43756;SDS011;45574;41.864;12.462;2022-09-29T03:44:42;24.25;;;3.50;;
43756;SDS011;45574;41.864;12.462;2022-09-29T03:47:29;19.23;;;3.15;;
43756;SDS011;45574;41.864;12.462;2022-09-29T03:50:15;20.38;;;3.42;;
43756;SDS011;45574;41.864;12.462;2022-09-29T03:53:05;25.17;;;3.95;;
43756;SDS011;45574;41.864;12.462;2022-09-29T03:55:51;21.20;;;3.58;;
43756;SDS011;45574;41.864;12.462;2022-09-29T03:58:37;24.00;;;3.55;;
43756;SDS011;45574;41.864;12.462;2022-09-29T04:01:24;24.15;;;3.88;;
43756;SDS011;45574;41.864;12.462;2022-09-29T04:04:11;30.75;;;3.70;;
43756;SDS011;45574;41.864;12.462;2022-09-29T04:06:58;24.42;;;4.10;;
43756;SDS011;45574;41.864;12.462;2022-09-29T04:09:44;24.77;;;3.45;;
43756;SDS011;45574;41.864;12.462;2022-09-29T04:12:31;29.15;;;4.55;;
43756;SDS011;45574;41.864;12.462;2022-09-29T04:15:17;33.85;;;4.82;;
43756;SDS011;45574;41.864;12.462;2022-09-29T04:18:04;18.88;;;3.28;;
43756;SDS011;45574;41.864;12.462;2022-09-29T04:20:51;28.13;;;3.50;;
43756;SDS011;45574;41.864;12.462;2022-09-29T04:23:39;21.55;;;3.47;;
43756;SDS011;45574;41.864;12.462;2022-09-29T04:26:27;19.98;;;3.72;;
43756;SDS011;45574;41.864;12.462;2022-09-29T04:29:14;23.75;;;4.07;;
43756;SDS011;45574;41.864;12.462;2022-09-29T04:32:00;21.45;;;3.28;;
43756;SDS011;45574;41.864;12.462;2022-09-29T04:34:47;24.27;;;3.55;;
43756;SDS011;45574;41.864;12.462;2022-09-29T04:37:33;18.98;;;3.65;;
43756;SDS011;45574;41.864;12.462;2022-09-29T04:40:20;24.88;;;3.83;;
43756;SDS011;45574;41.864;12.462;2022-09-29T04:43:07;24.15;;;3.20;;
43756;SDS011;45574;41.864;12.462;2022-09-29T04:45:59;19.90;;;3.60;;
43756;SDS011;45574;41.864;12.462;2022-09-29T04:48:47;19.52;;;3.10;;
43756;SDS011;45574;41.864;12.462;2022-09-29T04:51:33;21.90;;;3.03;;
43756;SDS011;45574;41.864;12.462;2022-09-29T04:54:19;21.15;;;3.80;;
43756;SDS011;45574;41.864;12.462;2022-09-29T04:57:06;16.15;;;2.97;;
43756;SDS011;45574;41.864;12.462;2022-09-29T04:59:53;19.27;;;3.33;;
43756;SDS011;45574;41.864;12.462;2022-09-29T05:02:41;18.70;;;2.80;;
43756;SDS011;45574;41.864;12.462;2022-09-29T05:05:27;17.85;;;3.05;;
43756;SDS011;45574;41.864;12.462;2022-09-29T05:08:14;19.95;;;3.17;;
43756;SDS011;45574;41.864;12.462;2022-09-29T05:11:04;17.33;;;2.78;;
43756;SDS011;45574;41.864;12.462;2022-09-29T05:13:51;15.52;;;2.92;;
43756;SDS011;45574;41.864;12.462;2022-09-29T05:16:38;25.02;;;3.35;;
43756;SDS011;45574;41.864;12.462;2022-09-29T05:19:24;17.95;;;3.00;;
43756;SDS011;45574;41.864;12.462;2022-09-29T05:22:11;20.08;;;3.53;;
43756;SDS011;45574;41.864;12.462;2022-09-29T05:24:57;19.50;;;2.70;;
43756;SDS011;45574;41.864;12.462;2022-09-29T05:27:44;19.98;;;3.20;;
43756;SDS011;45574;41.864;12.462;2022-09-29T05:30:30;16.58;;;2.90;;
43756;SDS011;45574;41.864;12.462;2022-09-29T05:33:17;16.52;;;3.83;;
43756;SDS011;45574;41.864;12.462;2022-09-29T05:36:10;19.33;;;2.83;;
43756;SDS011;45574;41.864;12.462;2022-09-29T05:39:02;17.08;;;3.00;;
43756;SDS011;45574;41.864;12.462;2022-09-29T05:42:09;15.15;;;2.90;;
43756;SDS011;45574;41.864;12.462;2022-09-29T05:45:04;17.50;;;2.63;;
43756;SDS011;45574;41.864;12.462;2022-09-29T05:48:01;19.77;;;2.65;;
43756;SDS011;45574;41.864;12.462;2022-09-29T05:54:35;21.85;;;2.97;;
43756;SDS011;45574;41.864;12.462;2022-09-29T06:02:59;12.10;;;2.67;;
43756;SDS011;45574;41.864;12.462;2022-09-29T06:09:07;14.23;;;2.85;;
43756;SDS011;45574;41.864;12.462;2022-09-29T06:23:53;12.88;;;2.72;;
43756;SDS011;45574;41.864;12.462;2022-09-29T06:27:21;9.25;;;2.40;;
43756;SDS011;45574;41.864;12.462;2022-09-29T06:30:23;14.77;;;3.17;;
43756;SDS011;45574;41.864;12.462;2022-09-29T06:33:22;10.45;;;2.75;;
43756;SDS011;45574;41.864;12.462;2022-09-29T06:36:40;13.70;;;2.53;;
43756;SDS011;45574;41.864;12.462;2022-09-29T06:39:46;11.52;;;2.63;;
43756;SDS011;45574;41.864;12.462;2022-09-29T06:43:14;12.45;;;2.88;;
43756;SDS011;45574;41.864;12.462;2022-09-29T06:46:13;11.50;;;2.72;;
43756;SDS011;45574;41.864;12.462;2022-09-29T06:49:10;12.90;;;3.72;;
43756;SDS011;45574;41.864;12.462;2022-09-29T06:52:00;20.50;;;4.53;;
43756;SDS011;45574;41.864;12.462;2022-09-29T06:54:47;14.73;;;4.05;;
43756;SDS011;45574;41.864;12.462;2022-09-29T06:57:33;16.60;;;4.80;;
43756;SDS011;45574;41.864;12.462;2022-09-29T07:00:34;19.52;;;4.45;;
43756;SDS011;45574;41.864;12.462;2022-09-29T07:03:49;14.23;;;5.25;;
43756;SDS011;45574;41.864;12.462;2022-09-29T07:06:41;20.08;;;5.88;;
43756;SDS011;45574;41.864;12.462;2022-09-29T07:09:35;18.00;;;5.40;;
43756;SDS011;45574;41.864;12.462;2022-09-29T07:12:29;16.45;;;4.60;;
43756;SDS011;45574;41.864;12.462;2022-09-29T07:15:16;14.30;;;3.20;;
43756;SDS011;45574;41.864;12.462;2022-09-29T07:18:05;16.95;;;3.30;;
43756;SDS011;45574;41.864;12.462;2022-09-29T07:21:03;9.80;;;2.83;;
43756;SDS011;45574;41.864;12.462;2022-09-29T07:23:50;11.23;;;2.65;;
43756;SDS011;45574;41.864;12.462;2022-09-29T07:26:39;9.73;;;1.20;;
43756;SDS011;45574;41.864;12.462;2022-09-29T07:29:26;11.80;;;2.33;;
43756;SDS011;45574;41.864;12.462;2022-09-29T07:32:23;10.57;;;2.25;;
43756;SDS011;45574;41.864;12.462;2022-09-29T07:35:20;7.55;;;1.42;;
43756;SDS011;45574;41.864;12.462;2022-09-29T07:38:09;12.32;;;2.00;;
43756;SDS011;45574;41.864;12.462;2022-09-29T07:41:01;10.60;;;2.28;;
43756;SDS011;45574;41.864;12.462;2022-09-29T07:43:55;12.15;;;2.03;;
43756;SDS011;45574;41.864;12.462;2022-09-29T07:46:44;9.40;;;1.95;;
43756;SDS011;45574;41.864;12.462;2022-09-29T07:49:35;12.32;;;1.90;;
43756;SDS011;45574;41.864;12.462;2022-09-29T07:52:24;8.70;;;1.80;;
43756;SDS011;45574;41.864;12.462;2022-09-29T07:55:10;12.10;;;2.20;;
43756;SDS011;45574;41.864;12.462;2022-09-29T07:58:00;15.50;;;2.40;;
43756;SDS011;45574;41.864;12.462;2022-09-29T08:00:54;10.18;;;2.10;;
43756;SDS011;45574;41.864;12.462;2022-09-29T08:03:41;10.25;;;2.30;;
43756;SDS011;45574;41.864;12.462;2022-09-29T08:06:32;11.63;;;2.50;;
43756;SDS011;45574;41.864;12.462;2022-09-29T08:09:19;13.00;;;2.40;;
43756;SDS011;45574;41.864;12.462;2022-09-29T08:12:08;14.32;;;2.55;;
43756;SDS011;45574;41.864;12.462;2022-09-29T08:14:54;13.65;;;2.40;;
43756;SDS011;45574;41.864;12.462;2022-09-29T08:17:41;17.40;;;2.70;;
43756;SDS011;45574;41.864;12.462;2022-09-29T08:20:27;10.23;;;2.13;;
43756;SDS011;45574;41.864;12.462;2022-09-29T08:23:13;9.52;;;2.10;;
43756;SDS011;45574;41.864;12.462;2022-09-29T08:26:04;6.63;;;2.00;;
43756;SDS011;45574;41.864;12.462;2022-09-29T08:28:57;11.88;;;2.30;;
43756;SDS011;45574;41.864;12.462;2022-09-29T08:31:55;12.32;;;2.25;;
43756;SDS011;45574;41.864;12.462;2022-09-29T08:34:45;9.20;;;2.22;;
43756;SDS011;45574;41.864;12.462;2022-09-29T08:37:40;12.45;;;2.95;;
43756;SDS011;45574;41.864;12.462;2022-09-29T08:40:27;17.70;;;3.65;;
43756;SDS011;45574;41.864;12.462;2022-09-29T08:43:24;14.68;;;2.78;;
43756;SDS011;45574;41.864;12.462;2022-09-29T08:46:24;15.90;;;2.83;;
43756;SDS011;45574;41.864;12.462;2022-09-29T08:49:18;12.07;;;2.20;;
43756;SDS011;45574;41.864;12.462;2022-09-29T08:52:12;12.07;;;2.28;;
43756;SDS011;45574;41.864;12.462;2022-09-29T08:58:09;14.70;;;2.83;;
43756;SDS011;45574;41.864;12.462;2022-09-29T09:01:03;10.68;;;2.15;;
43756;SDS011;45574;41.864;12.462;2022-09-29T09:22:32;11.85;;;3.00;;
43756;SDS011;45574;41.864;12.462;2022-09-29T09:25:31;14.27;;;3.03;;
43756;SDS011;45574;41.864;12.462;2022-09-29T09:28:25;16.08;;;2.88;;
43756;SDS011;45574;41.864;12.462;2022-09-29T09:31:20;14.95;;;2.40;;
43756;SDS011;45574;41.864;12.462;2022-09-29T09:34:13;10.27;;;2.30;;
43756;SDS011;45574;41.864;12.462;2022-09-29T09:37:10;11.98;;;2.80;;
43756;SDS011;45574;41.864;12.462;2022-09-29T09:43:05;10.45;;;3.28;;
43756;SDS011;45574;41.864;12.462;2022-09-29T09:46:08;12.38;;;2.65;;
43756;SDS011;45574;41.864;12.462;2022-09-29T09:49:14;9.43;;;2.35;;
43756;SDS011;45574;41.864;12.462;2022-09-29T09:55:28;11.93;;;2.38;;
43756;SDS011;45574;41.864;12.462;2022-09-29T10:01:11;5.22;;;1.90;;
43756;SDS011;45574;41.864;12.462;2022-09-29T10:03:58;8.35;;;1.98;;
43756;SDS011;45574;41.864;12.462;2022-09-29T10:06:45;7.55;;;2.28;;
43756;SDS011;45574;41.864;12.462;2022-09-29T10:09:32;9.60;;;2.38;;
43756;SDS011;45574;41.864;12.462;2022-09-29T10:12:19;4.75;;;1.67;;
43756;SDS011;45574;41.864;12.462;2022-09-29T10:15:17;7.57;;;1.50;;
43756;SDS011;45574;41.864;12.462;2022-09-29T10:18:12;9.40;;;1.92;;
43756;SDS011;45574;41.864;12.462;2022-09-29T10:21:02;6.57;;;1.75;;
43756;SDS011;45574;41.864;12.462;2022-09-29T10:23:49;4.70;;;1.63;;
43756;SDS011;45574;41.864;12.462;2022-09-29T10:26:39;4.80;;;1.50;;
43756;SDS011;45574;41.864;12.462;2022-09-29T10:32:28;4.68;;;1.30;;
43756;SDS011;45574;41.864;12.462;2022-09-29T10:35:24;4.63;;;1.15;;
43756;SDS011;45574;41.864;12.462;2022-09-29T10:38:22;3.97;;;0.90;;
43756;SDS011;45574;41.864;12.462;2022-09-29T10:41:10;5.10;;;0.90;;
43756;SDS011;45574;41.864;12.462;2022-09-29T10:43:57;6.20;;;1.25;;
43756;SDS011;45574;41.864;12.462;2022-09-29T10:47:06;4.50;;;1.33;;
43756;SDS011;45574;41.864;12.462;2022-09-29T10:50:06;7.07;;;1.83;;
43756;SDS011;45574;41.864;12.462;2022-09-29T10:53:18;5.53;;;1.15;;
43756;SDS011;45574;41.864;12.462;2022-09-29T10:56:14;3.30;;;0.90;;
43756;SDS011;45574;41.864;12.462;2022-09-29T10:59:09;5.20;;;1.10;;
43756;SDS011;45574;41.864;12.462;2022-09-29T11:01:57;8.60;;;1.30;;
43756;SDS011;45574;41.864;12.462;2022-09-29T11:04:46;7.97;;;1.33;;
43756;SDS011;45574;41.864;12.462;2022-09-29T11:07:33;7.93;;;1.60;;
43756;SDS011;45574;41.864;12.462;2022-09-29T11:10:35;9.30;;;1.35;;
43756;SDS011;45574;41.864;12.462;2022-09-29T11:13:30;8.05;;;1.33;;
43756;SDS011;45574;41.864;12.462;2022-09-29T11:16:25;4.57;;;0.93;;
43756;SDS011;45574;41.864;12.462;2022-09-29T11:19:19;2.83;;;0.90;;
43756;SDS011;45574;41.864;12.462;2022-09-29T11:35:02;3.03;;;1.00;;
43756;SDS011;45574;41.864;12.462;2022-09-29T11:41:25;4.63;;;1.13;;
43756;SDS011;45574;41.864;12.462;2022-09-29T11:57:13;4.43;;;1.23;;
43756;SDS011;45574;41.864;12.462;2022-09-29T12:00:13;5.95;;;1.38;;
43756;SDS011;45574;41.864;12.462;2022-09-29T12:09:26;8.18;;;1.80;;
43756;SDS011;45574;41.864;12.462;2022-09-29T12:17:53;7.15;;;1.60;;
43756;SDS011;45574;41.864;12.462;2022-09-29T12:20:45;8.32;;;1.48;;
43756;SDS011;45574;41.864;12.462;2022-09-29T12:23:35;7.05;;;1.50;;
43756;SDS011;45574;41.864;12.462;2022-09-29T12:26:24;6.50;;;1.75;;
43756;SDS011;45574;41.864;12.462;2022-09-29T12:29:19;5.50;;;1.63;;
43756;SDS011;45574;41.864;12.462;2022-09-29T12:32:08;6.03;;;1.40;;
43756;SDS011;45574;41.864;12.462;2022-09-29T12:35:01;6.72;;;1.60;;
43756;SDS011;45574;41.864;12.462;2022-09-29T12:38:19;8.43;;;1.50;;
43756;SDS011;45574;41.864;12.462;2022-09-29T12:41:18;6.55;;;1.40;;
43756;SDS011;45574;41.864;12.462;2022-09-29T12:44:26;5.78;;;1.40;;
43756;SDS011;45574;41.864;12.462;2022-09-29T12:50:32;4.75;;;1.33;;
43756;SDS011;45574;41.864;12.462;2022-09-29T12:53:36;5.95;;;1.50;;
43756;SDS011;45574;41.864;12.462;2022-09-29T12:56:28;7.45;;;1.42;;
43756;SDS011;45574;41.864;12.462;2022-09-29T12:59:36;14.25;;;1.48;;
43756;SDS011;45574;41.864;12.462;2022-09-29T13:09:23;8.20;;;1.58;;
43756;SDS011;45574;41.864;12.462;2022-09-29T13:21:12;6.38;;;1.23;;
43756;SDS011;45574;41.864;12.462;2022-09-29T13:30:19;3.72;;;1.33;;
43756;SDS011;45574;41.864;12.462;2022-09-29T13:33:15;6.72;;;1.40;;
43756;SDS011;45574;41.864;12.462;2022-09-29T13:36:06;7.30;;;1.55;;
43756;SDS011;45574;41.864;12.462;2022-09-29T13:38:54;4.72;;;1.27;;
43756;SDS011;45574;41.864;12.462;2022-09-29T13:41:43;8.50;;;1.50;;
43756;SDS011;45574;41.864;12.462;2022-09-29T13:44:29;3.92;;;1.33;;
43756;SDS011;45574;41.864;12.462;2022-09-29T13:47:32;4.80;;;1.40;;
43756;SDS011;45574;41.864;12.462;2022-09-29T13:53:26;5.35;;;1.20;;
43756;SDS011;45574;41.864;12.462;2022-09-29T13:56:26;6.63;;;1.40;;
43756;SDS011;45574;41.864;12.462;2022-09-29T13:59:13;4.38;;;1.30;;
43756;SDS011;45574;41.864;12.462;2022-09-29T14:02:16;7.30;;;1.20;;
43756;SDS011;45574;41.864;12.462;2022-09-29T14:08:13;7.75;;;1.63;;
43756;SDS011;45574;41.864;12.462;2022-09-29T14:11:13;5.55;;;1.35;;
43756;SDS011;45574;41.864;12.462;2022-09-29T14:14:23;9.18;;;1.50;;
43756;SDS011;45574;41.864;12.462;2022-09-29T14:17:33;5.35;;;1.27;;
43756;SDS011;45574;41.864;12.462;2022-09-29T14:20:30;6.60;;;1.23;;
43756;SDS011;45574;41.864;12.462;2022-09-29T14:23:38;8.63;;;2.10;;
43756;SDS011;45574;41.864;12.462;2022-09-29T14:29:33;6.90;;;1.40;;
43756;SDS011;45574;41.864;12.462;2022-09-29T14:35:39;8.10;;;1.40;;
43756;SDS011;45574;41.864;12.462;2022-09-29T14:38:29;11.32;;;1.90;;
43756;SDS011;45574;41.864;12.462;2022-09-29T14:41:22;3.22;;;1.08;;
43756;SDS011;45574;41.864;12.462;2022-09-29T14:44:24;7.25;;;1.17;;
43756;SDS011;45574;41.864;12.462;2022-09-29T14:48:08;6.57;;;1.30;;
43756;SDS011;45574;41.864;12.462;2022-09-29T14:51:19;6.35;;;1.75;;
43756;SDS011;45574;41.864;12.462;2022-09-29T14:57:43;7.63;;;1.35;;
43756;SDS011;45574;41.864;12.462;2022-09-29T15:03:49;3.42;;;0.95;;
43756;SDS011;45574;41.864;12.462;2022-09-29T15:06:49;6.78;;;1.60;;
43756;SDS011;45574;41.864;12.462;2022-09-29T15:09:37;5.03;;;1.58;;
43756;SDS011;45574;41.864;12.462;2022-09-29T15:12:26;9.18;;;1.60;;
43756;SDS011;45574;41.864;12.462;2022-09-29T15:15:28;9.40;;;1.58;;
43756;SDS011;45574;41.864;12.462;2022-09-29T15:18:40;7.78;;;1.80;;
43756;SDS011;45574;41.864;12.462;2022-09-29T15:22:02;6.05;;;1.42;;
43756;SDS011;45574;41.864;12.462;2022-09-29T15:28:16;8.05;;;1.35;;
43756;SDS011;45574;41.864;12.462;2022-09-29T15:31:08;6.53;;;1.50;;
43756;SDS011;45574;41.864;12.462;2022-09-29T15:34:01;11.00;;;1.80;;
43756;SDS011;45574;41.864;12.462;2022-09-29T15:36:52;9.20;;;1.30;;
43756;SDS011;45574;41.864;12.462;2022-09-29T15:39:42;9.75;;;1.80;;
43756;SDS011;45574;41.864;12.462;2022-09-29T15:42:33;11.60;;;2.03;;
43756;SDS011;45574;41.864;12.462;2022-09-29T15:45:24;8.98;;;1.90;;
43756;SDS011;45574;41.864;12.462;2022-09-29T15:48:12;11.45;;;2.20;;
43756;SDS011;45574;41.864;12.462;2022-09-29T15:51:01;9.18;;;1.88;;
43756;SDS011;45574;41.864;12.462;2022-09-29T15:53:49;10.88;;;2.10;;
43756;SDS011;45574;41.864;12.462;2022-09-29T15:56:36;11.32;;;2.30;;
43756;SDS011;45574;41.864;12.462;2022-09-29T15:59:53;15.73;;;2.00;;
43756;SDS011;45574;41.864;12.462;2022-09-29T16:02:41;7.43;;;1.77;;
43756;SDS011;45574;41.864;12.462;2022-09-29T16:05:32;11.48;;;2.20;;
43756;SDS011;45574;41.864;12.462;2022-09-29T16:08:23;10.00;;;2.05;;
43756;SDS011;45574;41.864;12.462;2022-09-29T16:11:16;15.60;;;2.67;;
43756;SDS011;45574;41.864;12.462;2022-09-29T16:14:21;13.55;;;1.98;;
43756;SDS011;45574;41.864;12.462;2022-09-29T16:17:09;10.02;;;1.60;;
43756;SDS011;45574;41.864;12.462;2022-09-29T16:19:57;10.40;;;1.95;;
43756;SDS011;45574;41.864;12.462;2022-09-29T16:22:48;9.18;;;1.88;;
43756;SDS011;45574;41.864;12.462;2022-09-29T16:25:34;15.00;;;2.33;;
43756;SDS011;45574;41.864;12.462;2022-09-29T16:28:24;16.38;;;2.60;;
43756;SDS011;45574;41.864;12.462;2022-09-29T16:34:08;9.73;;;2.45;;
43756;SDS011;45574;41.864;12.462;2022-09-29T16:37:05;18.35;;;2.70;;
43756;SDS011;45574;41.864;12.462;2022-09-29T16:40:02;11.45;;;2.17;;
43756;SDS011;45574;41.864;12.462;2022-09-29T16:42:50;10.50;;;2.00;;
43756;SDS011;45574;41.864;12.462;2022-09-29T16:45:38;13.55;;;2.60;;
43756;SDS011;45574;41.864;12.462;2022-09-29T16:48:27;9.55;;;2.03;;
43756;SDS011;45574;41.864;12.462;2022-09-29T16:51:19;11.20;;;2.20;;
43756;SDS011;45574;41.864;12.462;2022-09-29T16:54:09;10.30;;;2.45;;
43756;SDS011;45574;41.864;12.462;2022-09-29T16:57:23;8.68;;;2.25;;
43756;SDS011;45574;41.864;12.462;2022-09-29T17:00:12;9.52;;;1.95;;
43756;SDS011;45574;41.864;12.462;2022-09-29T17:02:58;11.13;;;2.20;;
43756;SDS011;45574;41.864;12.462;2022-09-29T17:05:48;11.05;;;2.13;;
43756;SDS011;45574;41.864;12.462;2022-09-29T17:08:36;11.13;;;2.33;;
43756;SDS011;45574;41.864;12.462;2022-09-29T17:11:22;14.05;;;2.42;;
43756;SDS011;45574;41.864;12.462;2022-09-29T17:14:09;12.35;;;2.33;;
43756;SDS011;45574;41.864;12.462;2022-09-29T17:16:58;5.88;;;1.95;;
43756;SDS011;45574;41.864;12.462;2022-09-29T17:19:44;11.48;;;2.10;;
43756;SDS011;45574;41.864;12.462;2022-09-29T17:22:32;14.50;;;2.85;;
43756;SDS011;45574;41.864;12.462;2022-09-29T17:25:21;8.40;;;2.47;;
43756;SDS011;45574;41.864;12.462;2022-09-29T17:28:18;13.98;;;3.10;;
43756;SDS011;45574;41.864;12.462;2022-09-29T17:31:09;10.98;;;3.08;;
43756;SDS011;45574;41.864;12.462;2022-09-29T17:33:57;13.02;;;3.05;;
43756;SDS011;45574;41.864;12.462;2022-09-29T17:36:44;11.57;;;2.95;;
43756;SDS011;45574;41.864;12.462;2022-09-29T17:39:30;14.98;;;2.65;;
43756;SDS011;45574;41.864;12.462;2022-09-29T17:42:17;17.58;;;2.78;;
43756;SDS011;45574;41.864;12.462;2022-09-29T17:45:03;19.15;;;2.83;;
43756;SDS011;45574;41.864;12.462;2022-09-29T17:47:50;26.48;;;3.58;;
43756;SDS011;45574;41.864;12.462;2022-09-29T17:50:38;12.00;;;3.10;;
43756;SDS011;45574;41.864;12.462;2022-09-29T17:53:27;14.65;;;2.78;;
43756;SDS011;45574;41.864;12.462;2022-09-29T17:56:21;17.67;;;2.92;;
43756;SDS011;45574;41.864;12.462;2022-09-29T17:59:12;11.93;;;2.60;;
43756;SDS011;45574;41.864;12.462;2022-09-29T18:02:00;11.57;;;2.10;;
43756;SDS011;45574;41.864;12.462;2022-09-29T18:04:47;7.70;;;1.70;;
43756;SDS011;45574;41.864;12.462;2022-09-29T18:07:34;5.95;;;1.40;;
43756;SDS011;45574;41.864;12.462;2022-09-29T18:10:33;5.10;;;1.20;;
43756;SDS011;45574;41.864;12.462;2022-09-29T18:13:32;12.68;;;1.83;;
43756;SDS011;45574;41.864;12.462;2022-09-29T18:16:19;15.50;;;1.65;;
43756;SDS011;45574;41.864;12.462;2022-09-29T18:19:16;7.47;;;1.45;;
43756;SDS011;45574;41.864;12.462;2022-09-29T18:22:03;11.02;;;1.60;;
43756;SDS011;45574;41.864;12.462;2022-09-29T18:24:51;11.05;;;2.58;;
43756;SDS011;45574;41.864;12.462;2022-09-29T18:27:37;11.35;;;2.80;;
43756;SDS011;45574;41.864;12.462;2022-09-29T18:30:29;9.88;;;2.42;;
43756;SDS011;45574;41.864;12.462;2022-09-29T18:33:24;17.63;;;3.03;;
43756;SDS011;45574;41.864;12.462;2022-09-29T18:36:12;10.23;;;2.75;;
43756;SDS011;45574;41.864;12.462;2022-09-29T18:38:59;13.90;;;3.00;;
43756;SDS011;45574;41.864;12.462;2022-09-29T18:41:46;13.18;;;2.72;;
43756;SDS011;45574;41.864;12.462;2022-09-29T18:44:35;8.50;;;2.70;;
43756;SDS011;45574;41.864;12.462;2022-09-29T18:47:23;12.35;;;2.72;;
43756;SDS011;45574;41.864;12.462;2022-09-29T18:50:13;12.18;;;2.58;;
43756;SDS011;45574;41.864;12.462;2022-09-29T18:53:04;16.40;;;3.90;;
43756;SDS011;45574;41.864;12.462;2022-09-29T18:55:53;22.63;;;2.92;;
43756;SDS011;45574;41.864;12.462;2022-09-29T18:58:42;15.65;;;4.28;;
43756;SDS011;45574;41.864;12.462;2022-09-29T19:01:29;27.05;;;4.25;;
43756;SDS011;45574;41.864;12.462;2022-09-29T19:04:16;17.67;;;4.55;;
43756;SDS011;45574;41.864;12.462;2022-09-29T19:07:02;20.95;;;4.45;;
43756;SDS011;45574;41.864;12.462;2022-09-29T19:09:53;26.90;;;4.60;;
43756;SDS011;45574;41.864;12.462;2022-09-29T19:12:39;19.13;;;4.40;;
43756;SDS011;45574;41.864;12.462;2022-09-29T19:15:30;20.15;;;4.20;;
43756;SDS011;45574;41.864;12.462;2022-09-29T19:18:19;21.65;;;4.47;;
43756;SDS011;45574;41.864;12.462;2022-09-29T19:21:10;23.98;;;4.78;;
43756;SDS011;45574;41.864;12.462;2022-09-29T19:23:58;20.92;;;4.68;;
43756;SDS011;45574;41.864;12.462;2022-09-29T19:26:46;18.42;;;4.45;;
43756;SDS011;45574;41.864;12.462;2022-09-29T19:29:32;16.98;;;4.25;;
43756;SDS011;45574;41.864;12.462;2022-09-29T19:32:19;21.25;;;3.90;;
43756;SDS011;45574;41.864;12.462;2022-09-29T19:35:10;17.52;;;3.20;;
43756;SDS011;45574;41.864;12.462;2022-09-29T19:37:58;17.27;;;3.78;;
43756;SDS011;45574;41.864;12.462;2022-09-29T19:40:48;14.48;;;3.55;;
43756;SDS011;45574;41.864;12.462;2022-09-29T19:43:36;15.43;;;3.58;;
43756;SDS011;45574;41.864;12.462;2022-09-29T19:46:22;19.67;;;4.65;;
43756;SDS011;45574;41.864;12.462;2022-09-29T19:49:09;18.75;;;3.92;;
43756;SDS011;45574;41.864;12.462;2022-09-29T19:51:56;15.20;;;3.60;;
43756;SDS011;45574;41.864;12.462;2022-09-29T19:54:42;15.48;;;3.65;;